Henrik Maehle

Scout - AGF
6 Nov 2027
Samstag
Verarbeitung

Persönlichkeit

Anpassungsfähigkeit (4) Ehrgeiz (15) Kontroverse (9) Loyalität (12) Druck (16) Professionalität (1) Fairness (20) Temperament (17)

Profil

Trainerstil Demokratisch
Lizenz Nationale B
Entschlossenheit 7
Menschenführung 4
Motivation 7
Disziplin 6
Arbeitszufriedenheit
100%
Ermüdung
0%
Rolle Scout
Gehalt 83.7K p/W
Vertrag 14.03.2030

Leistung

Verhalten Gut
Trainingseffektivität
29%
Spielerentwicklung
40%
Verletzungsprävention
30%
Taktische Umsetzung
40%

Letzte Ereignisse

Nahm an einer Scouting-Besprechung teil jetzt
Nahm an einer Scouting-Besprechung teil 7T her
Empfahl ein Transferziel 7T her
Nahm an einer Scouting-Besprechung teil 7T her
Spieler begutachtet 7T her
Spieler begutachtet 7T her
Spieler begutachtet 7T her
Spieler begutachtet 7T her

Aktuell beobachtet

142
Spieler Verein Status Fähigkeit Vertrauen Beobachtet Zuletzt beobachtet Letzte Stimme
Sabil Hansen Randers Aktiv 108 / 110 40% 7 30.10.2027 -
Biel La Equidad Aktiv 118 / 137 40% 2 30.10.2027 -
Björn Hedlöf Helsingborg Aktiv 93 / 103 40% 1 30.10.2027 -
Fillip Jenssen Riise Stabaek Aktiv 99 / 98 40% 2 28.10.2027 -
Mohamed Cherif Haïdara Esbjerg Aktiv 107 / 114 40% 1 28.10.2027 -
Kaick FC Dallas Aktiv 98 / 105 40% 1 28.10.2027 -
Emmanuel Akpan Bendel Insurance Aktiv 90 / 94 40% 2 27.10.2027 -
Mads Bomholt Lillestrom Aktiv 103 / 122 40% 1 27.10.2027 -
Facundo Balatti Penarol Aktiv 104 / 106 40% 1 27.10.2027 -
Tyson Pearce St. Louis CITY SC Aktiv 92 / 84 40% 2 26.10.2027 -
Godwin Oham Warri Wolves Aktiv 85 / 95 40% 2 26.10.2027 -
Matias Siltanen Malmo FF Aktiv 119 / 127 40% 1 26.10.2027 -
Tiago Gordillo San Miguel Aktiv 88 / 96 40% 2 25.10.2027 -
Aiden Hezarkhani Real Salt Lake Aktiv 87 / 99 40% 1 25.10.2027 -
Joel Ezra Enyimba Aktiv 88 / 91 40% 2 24.10.2027 -
Uche Jaguar Kwara United Aktiv 85 / 103 40% 1 24.10.2027 -
Olaniyi Saheed Kwara United Aktiv 95 / 107 40% 2 21.10.2027 -
Halam Loboa Independiente Medellin Aktiv 111 / 138 40% 2 21.10.2027 -
Lucas Bergvall Tottenham Aktiv 146 / 147 40% 1 21.10.2027 -
Tobias Moi Bodo/Glimt Aktiv 108 / 109 40% 2 19.10.2027 -
Nahuel Leivas Montevideo City Torque Aktiv 94 / 97 40% 1 19.10.2027 -
Kenan Busuladžić Malmo FF Aktiv 114 / 131 40% 2 18.10.2027 -
Luis Otávio Toronto FC Aktiv 105 / 116 40% 1 15.10.2027 -
Edvard Pettersen Sandefjord Aktiv 101 / 105 40% 2 14.10.2027 -
Inti Borghetto Patronato Aktiv 95 / 99 40% 2 14.10.2027 -
Azizbek To'lqinbekov Bunyodkor Aktiv 97 / 97 40% 1 11.10.2027 -
Agustín Medina Lanús Aktiv 123 / 141 40% 1 11.10.2027 -
Hosea Michael Remo Stars Aktiv 92 / 85 40% 1 07.10.2027 -
Gideon Manaseh Ikorodu City Aktiv 95 / 109 40% 1 07.10.2027 -
Agustín Hausch Caracas Aktiv 127 / 115 40% 1 31.08.2027 -
Ibrahim Aliyu Houston Dynamo Verloren 129 / 126 40% 1 31.08.2027 -
Morgan Guilavogui Real Salt Lake Aktiv 129 / 114 40% 1 31.08.2027 -
Lautaro Dufur Rentistas Aktiv 103 / 120 40% 1 24.08.2027 -
Chibueze Oputa Rangers International Aktiv 89 / 81 40% 1 24.08.2027 -
Ibrahim Sabiu Bendel Insurance Aktiv 87 / 84 40% 1 24.08.2027 -
Jens Odgaard Bologna Aktiv 145 / 136 40% 3 16.08.2027 -
Abraham Paintsil Hasaacas Aktiv 87 / 100 40% 3 09.08.2027 -
Mohammed Wakaso Hasaacas Aktiv 96 / 93 40% 5 09.08.2027 -
Jaydee Canvot Liverpool Aktiv 136 / 142 40% 2 09.08.2027 -
Jay Stansfield Birmingham Verloren 139 / 128 40% 1 02.08.2027 -
Karlan Grant West Bromwich Albion Verloren 120 / 118 40% 1 02.08.2027 -
Emil Riis Leicester City Aktiv 125 / 126 40% 2 13.07.2027 -
Richard Koné Queens Park Rangers Aktiv 122 / 128 40% 1 13.07.2027 -
Mihailo Ivanović Millwall Aktiv 124 / 133 40% 1 14.06.2027 -
Caio Vidal FC Copenhagen Verhandlung 128 / 129 63% 1 01.06.2027 Befürworten
Max O'Leary West Bromwich Albion Aktiv 127 / 117 40% 1 01.06.2027 -
Tommy Conway Middlesbrough Aktiv 130 / 124 40% 3 29.05.2027 -
Pelle Mattsson Norwich City Aktiv 122 / 134 40% 7 29.05.2027 -
Morten Frendrup Genoa Aktiv 137 / 148 40% 5 28.05.2027 -
Isaiah Jones Luton Town Aktiv 124 / 127 40% 4 28.05.2027 -
Tomáš Rigo Stoke City Aktiv 129 / 128 40% 2 28.05.2027 -
Victor Torp Coventry City Aktiv 133 / 125 40% 2 27.05.2027 -
Milan van Ewijk Coventry City Aktiv 135 / 136 40% 4 26.05.2027 -
Ronald Swansea City Aktiv 123 / 120 40% 4 26.05.2027 -
Koki Saito Queens Park Rangers Aktiv 124 / 123 40% 4 25.05.2027 -
Shea Charles Southampton Aktiv 136 / 133 40% 2 25.05.2027 -
Mathias Jørgensen Blackburn Rovers Aktiv 124 / 110 40% 5 24.05.2027 -
Rumarn Burrell Queens Park Rangers Aktiv 126 / 117 40% 3 24.05.2027 -
Jack McGlynn Stoke City Aktiv 127 / 139 40% 2 23.05.2027 -
Ali Ahmed Norwich City Aktiv 130 / 128 40% 2 22.05.2027 -
Riley Owen Wycombe Wanderers Aktiv 107 / 116 40% 2 22.05.2027 -
Davide Bartesaghi AC Milan Aktiv 134 / 141 40% 1 22.05.2027 -
Caleb Yirenkyi Coventry City Aktiv 134 / 133 40% 6 21.05.2027 -
Sascha Britschgi Catanzaro Aktiv 121 / 124 40% 1 21.05.2027 Mehr Infos nötig
Zeidane Inoussa Swansea City Aktiv 123 / 120 40% 4 20.05.2027 -
Dylan Lawlor Cardiff City Aktiv 118 / 127 40% 2 19.05.2027 -
Martim Cunha Porto Aktiv 105 / 109 40% 1 19.05.2027 -
Sam Curtis Swindon Town Aktiv 106 / 104 40% 2 18.05.2027 -
Max Johnston Derby County Aktiv 134 / 126 40% 5 15.05.2027 -
Tyrese Campbell Sheffield United Aktiv 128 / 132 40% 1 15.05.2027 -
Ramón Terrats Getafe Aktiv 143 / 145 40% 3 13.05.2027 Beobachten
Aidomo Emakhu Oxford United Aktiv 115 / 129 40% 3 10.05.2027 -
Lamine Cissé Peterborough United Aktiv 121 / 115 40% 4 09.05.2027 -
Dale Taylor Blackpool Aktiv 113 / 112 40% 3 05.05.2027 -
Isaac Price West Bromwich Albion Aktiv 129 / 121 40% 3 05.05.2027 -
Romano Schmid Frosinone Aktiv 149 / 146 40% 3 02.05.2027 -
Tariq Lamptey Queens Park Rangers Aktiv 140 / 136 40% 2 02.05.2027 -
Cian Ashford Cardiff City Aktiv 115 / 119 40% 2 01.05.2027 -
Hjalte Bidstrup Aalborg Aktiv 112 / 123 40% 4 30.04.2027 -
Gladson Sulemana Liberty Professionals Aktiv 85 / 88 40% 3 30.04.2027 -
Tony Springett Barnet Aktiv 110 / 99 40% 1 30.04.2027 -
Tom Fellows Southampton Aktiv 138 / 140 40% 2 28.04.2027 -
Leonardo Mendicino Bari Aktiv 114 / 128 40% 1 28.04.2027 -
Fraser Murray Wigan Athletic Aktiv 115 / 121 40% 4 26.04.2027 -
Million Manhoef Stoke City Aktiv 131 / 130 40% 1 25.04.2027 -
Jofre Torrents Ajax Aktiv 117 / 124 40% 2 24.04.2027 -
Welington Southampton Aktiv 127 / 123 40% 1 19.04.2027 -
Daniel Kyerewaa Reading Aktiv 120 / 117 40% 2 18.04.2027 -
Melker Widell Swansea City Aktiv 127 / 119 40% 4 17.04.2027 -
Camilo Durán Bloemfontein Celtic Aktiv 121 / 127 40% 1 17.04.2027 -
Edwin Asamoah Berekum Chelsea Aktiv 89 / 81 40% 3 16.04.2027 -
Jack Rudoni Coventry City Aktiv 129 / 124 40% 2 16.04.2027 -
Chema Andrés Liverpool Aktiv 131 / 146 40% 1 16.04.2027 -
Eivind Helland Bologna Aktiv 130 / 132 40% 1 13.04.2027 -
Paddy Lane Reading Aktiv 107 / 101 40% 4 10.04.2027 -
Tshepang Moremi Orlando Pirates Aktiv 110 / 119 40% 1 10.04.2027 -
Louie Barry Sheffield Wednesday Aktiv 123 / 132 40% 1 05.04.2027 -
Ethan Galbraith Swansea City Aktiv 129 / 133 40% 2 01.04.2027 -
Relebohile Mofokeng Orlando Pirates Aktiv 126 / 130 40% 2 01.04.2027 -
Jason Knight Bristol City Aktiv 124 / 125 40% 1 31.03.2027 -
Finn Azaz Southampton Aktiv 127 / 134 40% 2 29.03.2027 -
Tiago Freitas Benfica Aktiv 112 / 114 40% 4 26.03.2027 -
Oscar Schwartau Norwich City Aktiv 121 / 128 40% 3 24.03.2027 -
Nazar Voloshyn Dynamo Kyiv Aktiv 135 / 121 40% 1 24.03.2027 -
Andre Brooks Sheffield United Aktiv 128 / 135 40% 1 23.03.2027 -
Nicolas Madsen Queens Park Rangers Aktiv 132 / 137 40% 1 22.03.2027 -
Joe Gelhardt Hull City Aktiv 134 / 138 40% 1 22.03.2027 -
Marcus McCoy Esbjerg Aktiv 101 / 110 40% 2 17.03.2027 -
Gonçalo Oliveira Benfica Aktiv 105 / 122 40% 1 17.03.2027 -
Riquelme Thompson-Jones Shrewsbury Town Aktiv 105 / 117 40% 2 13.03.2027 -
Leandro Martins Benfica Aktiv 97 / 93 40% 1 09.03.2027 -
Lucas Høgsberg Paris Saint-Germain Aktiv 130 / 133 40% 3 05.03.2027 -
Raymond Agyemang Aduana Stars Aktiv 86 / 86 40% 2 04.03.2027 -
Lucas Jetten Cambuur Aktiv 114 / 126 40% 1 04.03.2027 -
Robert FC Copenhagen Aktiv 121 / 126 40% 1 31.12.2026 -
Zoltan Bese Haladas Aktiv 100 / 114 40% 2 27.12.2026 -
Jakob Vester Sandefjord Aktiv 109 / 123 40% 4 21.12.2026 -
Anders Bondhus Haugesund Aktiv 95 / 103 40% 2 21.12.2026 -
Alpha Touré FC Metz Aktiv 106 / 114 40% 1 20.12.2026 -
Runar Norheim FC Nordsjaelland Aktiv 125 / 120 40% 2 15.12.2026 -
Owen Lunt Crewe Alexandra Aktiv 100 / 103 40% 1 11.12.2026 -
James Dornelly Peterborough United Aktiv 95 / 106 40% 1 09.12.2026 -
Mauricio Amaro Atlanta United FC Aktiv 114 / 122 40% 4 27.11.2026 -
Alexander Warneryd Tromso Aktiv 109 / 124 40% 2 22.11.2026 -
Reuell Walters Luton Town Aktiv 107 / 116 40% 1 22.11.2026 -
Nikita Stoinov Dinamo Bucharest Aktiv 111 / 141 40% 1 17.11.2026 -
Matteo Pérez Vinlöf Dinamo Zagreb Aktiv 109 / 143 40% 1 06.11.2026 -
Markus Walker Brondby Aktiv 101 / 127 40% 2 02.11.2026 -
Tobias Dahl Rosenborg Aktiv 87 / 93 40% 1 02.11.2026 -
Osvald Søe San Diego Football Club Aktiv 91 / 113 40% 2 05.10.2026 -
Karsten Ekorness Stabaek Aktiv 87 / 103 40% 1 05.10.2026 -
Sergio Castillo Cortulua Aktiv 100 / 120 40% 1 29.09.2026 -
Philippe Ndinga Philadelphia Union Aktiv 101 / 102 40% 2 26.09.2026 -
Mbekezeli Mbokazi Chicago Fire Aktiv 128 / 137 40% 3 23.09.2026 -
Elías Báez Atlanta United FC Aktiv 111 / 109 40% 3 22.09.2026 -
Furkan Demir Rapid Wien Aktiv 122 / 128 40% 1 22.09.2026 -
Morrison Agyemang Charlotte Football Club Aktiv 103 / 138 40% 1 22.09.2026 -
Jonathan De Irastorza Levante Aktiv 122 / 123 40% 1 20.09.2026 -
Tobias Slotsager Hellas Verona Aktiv 110 / 125 40% 1 18.09.2026 -
Aleksander Hammer Kjelsen Aalesund Aktiv 102 / 115 40% 2 16.09.2026 -
Casper Glenna Odd Aktiv 92 / 99 40% 1 16.09.2026 -
Brooklyn Raines New England Revolution Aktiv 120 / 106 40% 1 09.09.2026 -